createdAt,value
2022-10-06T00:01:03.626Z,13.86
2022-10-06T00:03:31.034Z,13.77
2022-10-06T00:06:02.708Z,13.58
2022-10-06T00:08:34.310Z,13.74
2022-10-06T00:11:00.956Z,13.84
2022-10-06T00:13:28.909Z,13.84
2022-10-06T00:15:55.905Z,13.89
2022-10-06T00:18:22.591Z,13.77
2022-10-06T00:21:00.882Z,13.82
2022-10-06T00:23:30.640Z,13.69
2022-10-06T00:25:57.150Z,13.65
2022-10-06T00:28:24.407Z,13.62
2022-10-06T00:30:53.406Z,13.82
2022-10-06T00:33:20.305Z,13.67
2022-10-06T00:35:47.190Z,13.79
2022-10-06T00:38:17.559Z,13.65
2022-10-06T00:40:53.163Z,13.70
2022-10-06T00:43:57.764Z,13.61
2022-10-06T00:46:52.092Z,13.49
2022-10-06T00:49:34.292Z,13.59
2022-10-06T00:52:09.570Z,13.58
2022-10-06T00:54:36.708Z,13.79
2022-10-06T00:57:05.384Z,13.79
2022-10-06T00:59:32.882Z,13.72
2022-10-06T01:02:05.498Z,13.82
2022-10-06T01:04:37.942Z,13.84
2022-10-06T01:07:04.496Z,14.04
2022-10-06T01:09:31.525Z,14.07
2022-10-06T01:12:01.164Z,14.20
2022-10-06T01:14:29.045Z,14.16
2022-10-06T01:17:04.404Z,14.17
2022-10-06T01:19:47.340Z,14.20
2022-10-06T01:22:16.296Z,14.25
2022-10-06T01:24:45.285Z,14.25
2022-10-06T01:27:13.114Z,14.11
2022-10-06T01:29:39.847Z,14.25
2022-10-06T01:32:06.663Z,14.27
2022-10-06T01:34:33.631Z,14.23
2022-10-06T01:37:00.167Z,14.28
2022-10-06T01:39:26.723Z,14.18
2022-10-06T01:41:53.212Z,14.21
2022-10-06T01:44:19.683Z,14.30
2022-10-06T01:46:46.264Z,14.21
2022-10-06T01:49:12.781Z,14.13
2022-10-06T01:51:39.498Z,14.16
2022-10-06T01:54:06.062Z,14.03
2022-10-06T01:56:33.246Z,13.93
2022-10-06T01:58:59.713Z,13.89
2022-10-06T02:01:26.308Z,13.82
2022-10-06T02:03:52.834Z,14.04
2022-10-06T02:06:19.436Z,14.09
2022-10-06T02:08:46.216Z,14.11
2022-10-06T02:11:13.624Z,14.02
2022-10-06T02:13:40.148Z,14.00
2022-10-06T02:16:08.140Z,13.99
2022-10-06T02:18:35.462Z,14.06
2022-10-06T02:21:03.306Z,13.89
2022-10-06T02:23:30.649Z,13.74
2022-10-06T02:26:01.804Z,13.70
2022-10-06T02:28:28.920Z,13.52
2022-10-06T02:31:01.233Z,13.58
2022-10-06T02:33:28.188Z,13.43
2022-10-06T02:35:56.048Z,13.51
2022-10-06T02:38:23.893Z,13.41
2022-10-06T02:40:51.515Z,13.38
2022-10-06T02:43:18.270Z,13.43
2022-10-06T02:45:53.058Z,13.46
2022-10-06T02:48:19.710Z,13.89
2022-10-06T02:50:54.422Z,13.79
2022-10-06T02:53:20.895Z,13.99
2022-10-06T02:55:47.415Z,14.00
2022-10-06T02:58:13.958Z,14.16
2022-10-06T03:00:40.657Z,14.25
2022-10-06T03:03:07.471Z,14.35
2022-10-06T03:05:34.087Z,14.46
2022-10-06T03:08:01.454Z,14.64
2022-10-06T03:10:27.975Z,14.72
2022-10-06T03:12:54.631Z,14.81
2022-10-06T03:15:21.388Z,14.85
2022-10-06T03:17:52.377Z,14.88
2022-10-06T03:20:18.880Z,14.92
2022-10-06T03:22:45.535Z,14.96
2022-10-06T03:25:11.989Z,14.98
2022-10-06T03:27:38.537Z,14.96
2022-10-06T03:30:06.552Z,14.92
2022-10-06T03:32:33.092Z,14.96
2022-10-06T03:34:59.672Z,14.93
2022-10-06T03:37:28.300Z,14.93
2022-10-06T03:39:54.753Z,14.91
2022-10-06T03:42:21.233Z,14.83
2022-10-06T03:44:47.744Z,14.82
2022-10-06T03:47:17.194Z,14.78
2022-10-06T03:49:44.191Z,14.73
2022-10-06T03:52:10.623Z,14.78
2022-10-06T03:54:37.211Z,14.81
2022-10-06T03:57:04.145Z,14.78
2022-10-06T03:59:34.101Z,14.88
2022-10-06T04:02:00.723Z,14.88
2022-10-06T04:04:27.653Z,14.91
2022-10-06T04:06:54.465Z,14.88
2022-10-06T04:09:21.119Z,14.83
2022-10-06T04:11:47.722Z,14.85
2022-10-06T04:14:16.134Z,14.83
2022-10-06T04:16:47.725Z,14.91
2022-10-06T04:19:15.873Z,14.86
2022-10-06T04:21:44.573Z,14.88
2022-10-06T04:24:12.118Z,14.98
2022-10-06T04:26:42.077Z,14.96
2022-10-06T04:29:08.714Z,14.93
2022-10-06T04:31:37.181Z,14.88
2022-10-06T04:34:04.673Z,14.81
2022-10-06T04:36:38.161Z,14.78
2022-10-06T04:39:05.873Z,14.76
2022-10-06T04:41:35.161Z,14.73
2022-10-06T04:44:02.650Z,14.79
2022-10-06T04:46:42.714Z,14.81
2022-10-06T04:49:12.379Z,14.79
2022-10-06T04:51:44.309Z,14.92
2022-10-06T04:54:10.852Z,14.93
2022-10-06T04:56:37.331Z,14.99
2022-10-06T04:59:03.842Z,14.99
2022-10-06T05:01:32.693Z,15.00
2022-10-06T05:04:01.620Z,14.95
2022-10-06T05:06:33.465Z,14.91
2022-10-06T05:09:02.405Z,14.83
2022-10-06T05:11:29.455Z,14.88
2022-10-06T05:13:57.671Z,14.95
2022-10-06T05:16:26.124Z,14.93
2022-10-06T05:18:53.242Z,14.92
2022-10-06T05:21:32.975Z,14.89
2022-10-06T05:24:00.135Z,14.75
2022-10-06T05:26:29.330Z,14.69
2022-10-06T05:28:56.161Z,14.62
2022-10-06T05:31:26.075Z,14.54
2022-10-06T05:33:52.819Z,14.46
2022-10-06T05:36:30.438Z,14.44
2022-10-06T05:38:57.937Z,14.34
2022-10-06T05:41:26.960Z,14.20
2022-10-06T05:43:53.469Z,14.17
2022-10-06T05:46:23.707Z,14.07
2022-10-06T05:48:52.258Z,14.00
2022-10-06T05:51:20.323Z,14.02
2022-10-06T05:53:48.525Z,13.99
2022-10-06T05:56:16.098Z,14.02
2022-10-06T05:58:45.754Z,13.96
2022-10-06T06:01:14.228Z,13.91
2022-10-06T06:03:42.858Z,13.93
2022-10-06T06:06:36.793Z,14.00
2022-10-06T06:09:07.124Z,14.03
2022-10-06T06:11:35.499Z,14.03
2022-10-06T06:14:07.996Z,13.94
2022-10-06T06:16:36.903Z,13.90
2022-10-06T06:19:03.480Z,13.89
2022-10-06T06:21:30.165Z,13.87
2022-10-06T06:23:57.334Z,13.89
2022-10-06T06:26:35.189Z,13.86
2022-10-06T06:29:06.129Z,13.93
2022-10-06T06:31:35.904Z,13.89
2022-10-06T06:34:04.974Z,13.86
2022-10-06T06:36:40.686Z,13.94
2022-10-06T06:39:09.717Z,13.99
2022-10-06T06:41:39.366Z,14.00
2022-10-06T06:44:08.313Z,14.00
2022-10-06T06:49:07.268Z,13.94
2022-10-06T06:51:36.499Z,14.02
2022-10-06T06:54:04.203Z,14.03
2022-10-06T06:56:38.593Z,14.02
2022-10-06T06:59:10.736Z,14.03
2022-10-06T07:01:47.182Z,13.96
2022-10-06T07:04:16.225Z,14.04
2022-10-06T07:06:47.737Z,14.16
2022-10-06T07:09:14.198Z,14.14
2022-10-06T07:11:41.039Z,14.17
2022-10-06T07:14:09.443Z,14.24
2022-10-06T07:16:54.982Z,14.24
2022-10-06T07:19:41.221Z,14.24
2022-10-06T07:22:26.489Z,14.37
2022-10-06T07:25:07.072Z,14.42
2022-10-06T07:27:35.310Z,14.67
2022-10-06T07:30:02.590Z,14.82
2022-10-06T07:32:31.177Z,14.83
2022-10-06T07:35:01.000Z,15.04
2022-10-06T07:37:31.367Z,15.18
2022-10-06T07:39:57.896Z,15.20
2022-10-06T07:42:24.645Z,15.33
2022-10-06T07:45:11.154Z,15.71
2022-10-06T07:47:38.374Z,15.91
2022-10-06T07:50:12.039Z,15.80
2022-10-06T07:52:39.317Z,15.60
2022-10-06T07:55:06.718Z,15.43
2022-10-06T07:57:35.525Z,16.30
2022-10-06T08:00:07.374Z,16.70
2022-10-06T08:02:35.827Z,16.34
2022-10-06T08:05:04.137Z,16.53
2022-10-06T08:07:30.863Z,16.26
2022-10-06T08:09:57.324Z,16.15
2022-10-06T08:12:37.647Z,16.13
2022-10-06T08:15:07.849Z,16.25
2022-10-06T08:17:36.508Z,16.40
2022-10-06T08:20:05.761Z,16.87
2022-10-06T08:22:32.495Z,17.31
2022-10-06T08:25:06.231Z,17.08
2022-10-06T08:27:35.238Z,19.08
2022-10-06T08:30:05.675Z,18.94
2022-10-06T08:32:32.852Z,19.56
2022-10-06T08:35:00.691Z,19.85
2022-10-06T08:37:27.293Z,19.85
2022-10-06T08:39:54.618Z,19.67
2022-10-06T08:42:38.529Z,21.07
2022-10-06T08:45:14.507Z,21.83
2022-10-06T08:47:50.151Z,19.87
2022-10-06T08:50:17.769Z,19.74
2022-10-06T08:52:47.961Z,19.80
2022-10-06T08:55:34.146Z,18.85
2022-10-06T08:58:34.346Z,18.72
2022-10-06T09:01:12.196Z,20.01
2022-10-06T09:03:38.860Z,21.45
2022-10-06T09:06:18.448Z,22.94
2022-10-06T09:08:53.110Z,22.53
2022-10-06T09:11:29.730Z,22.90
2022-10-06T09:14:03.827Z,22.77
2022-10-06T09:16:37.126Z,23.32
2022-10-06T09:19:18.205Z,22.26
2022-10-06T09:21:50.519Z,23.94
2022-10-06T09:24:20.378Z,25.47
2022-10-06T09:26:49.525Z,25.05
2022-10-06T09:29:16.821Z,24.66
2022-10-06T09:31:50.393Z,25.63
2022-10-06T09:34:23.256Z,25.87
2022-10-06T09:37:01.537Z,27.17
2022-10-06T09:39:33.254Z,25.68
2022-10-06T09:42:24.595Z,23.16
2022-10-06T09:44:51.334Z,24.42
2022-10-06T09:47:33.146Z,23.30
2022-10-06T09:50:11.268Z,24.87
2022-10-06T09:52:38.883Z,26.55
2022-10-06T09:55:17.737Z,27.65
2022-10-06T09:57:49.566Z,25.80
2022-10-06T10:00:27.602Z,24.59
2022-10-06T10:03:09.251Z,25.10
2022-10-06T10:05:45.764Z,26.56
2022-10-06T10:08:22.318Z,26.57
2022-10-06T10:10:50.927Z,24.59
2022-10-06T10:13:24.041Z,24.96
2022-10-06T10:16:02.781Z,24.41
2022-10-06T10:18:31.613Z,24.17
2022-10-06T10:21:00.908Z,22.99
2022-10-06T10:23:40.673Z,21.35
2022-10-06T10:26:36.058Z,20.80
2022-10-06T10:29:42.475Z,21.01
2022-10-06T10:32:12.649Z,20.84
2022-10-06T10:34:59.197Z,20.77
2022-10-06T10:37:35.612Z,20.19
2022-10-06T10:40:23.521Z,20.56
2022-10-06T10:43:04.521Z,20.43
2022-10-06T10:45:34.020Z,19.60
2022-10-06T10:48:04.916Z,20.05
2022-10-06T10:50:47.868Z,19.74
2022-10-06T10:53:42.681Z,19.75
2022-10-06T10:56:12.124Z,19.71
2022-10-06T10:58:41.910Z,19.61
2022-10-06T11:01:29.825Z,19.23
2022-10-06T11:03:58.449Z,18.87
2022-10-06T11:06:58.879Z,19.46
2022-10-06T11:09:40.775Z,21.26
2022-10-06T11:12:33.890Z,22.16
2022-10-06T11:15:07.150Z,22.10
2022-10-06T11:17:35.850Z,23.30
2022-10-06T11:20:22.745Z,23.39
2022-10-06T11:22:55.202Z,22.13
2022-10-06T11:25:44.689Z,21.48
2022-10-06T11:28:17.241Z,22.24
2022-10-06T11:30:54.730Z,22.43
2022-10-06T11:33:29.573Z,21.49
2022-10-06T11:35:56.389Z,22.08
2022-10-06T11:38:34.370Z,22.33
2022-10-06T11:41:24.121Z,23.65
2022-10-06T11:44:00.576Z,24.71
2022-10-06T11:46:35.543Z,24.66
2022-10-06T11:49:29.880Z,23.30
2022-10-06T11:52:00.095Z,22.63
2022-10-06T11:54:37.403Z,20.81
2022-10-06T11:57:29.339Z,21.48
2022-10-06T12:00:03.115Z,21.38
2022-10-06T12:02:32.676Z,22.68
2022-10-06T12:05:47.124Z,23.23
2022-10-06T12:08:01.111Z,24.52
2022-10-06T12:10:27.613Z,24.49
2022-10-06T12:13:11.362Z,23.39
2022-10-06T12:18:57.032Z,25.17
2022-10-06T12:21:50.053Z,23.74
2022-10-06T12:24:58.576Z,24.27
2022-10-06T12:27:52.546Z,24.27
2022-10-06T12:30:27.783Z,24.71
2022-10-06T12:32:58.399Z,24.75
2022-10-06T12:35:31.589Z,24.00
2022-10-06T12:38:05.844Z,24.61
2022-10-06T12:40:38.341Z,24.54
2022-10-06T12:43:22.676Z,23.32
2022-10-06T12:45:58.101Z,22.91
2022-10-06T12:48:55.571Z,22.83
2022-10-06T12:51:38.673Z,22.90
2022-10-06T12:54:11.211Z,22.84
2022-10-06T12:56:41.091Z,23.98
2022-10-06T12:59:20.342Z,23.32
2022-10-06T13:01:50.423Z,23.45
2022-10-06T13:04:49.310Z,21.54
2022-10-06T13:07:25.026Z,21.06
2022-10-06T13:10:09.758Z,22.65
2022-10-06T13:12:38.682Z,23.35
2022-10-06T13:15:41.482Z,22.13
2022-10-06T13:18:08.002Z,23.05
2022-10-06T13:20:35.552Z,23.59
2022-10-06T13:23:21.926Z,24.25
2022-10-06T13:25:52.385Z,23.50
2022-10-06T13:28:25.022Z,23.50
2022-10-06T13:30:58.300Z,23.33
2022-10-06T13:33:38.051Z,23.09
2022-10-06T13:36:05.902Z,23.62
2022-10-06T13:38:35.057Z,21.69
2022-10-06T13:41:07.793Z,21.37
2022-10-06T13:43:40.600Z,21.38
2022-10-06T13:46:16.793Z,21.28
2022-10-06T13:48:50.934Z,21.77
2022-10-06T13:51:21.507Z,22.19
2022-10-06T13:53:48.430Z,22.74
2022-10-06T13:56:33.775Z,22.72
2022-10-06T13:59:28.650Z,23.09
2022-10-06T14:01:56.538Z,22.39
2022-10-06T14:04:23.710Z,22.20
2022-10-06T14:06:56.915Z,22.60
2022-10-06T14:09:32.645Z,22.26
2022-10-06T14:12:06.316Z,22.51
2022-10-06T14:14:33.247Z,22.67
2022-10-06T14:16:59.708Z,21.21
2022-10-06T14:19:35.733Z,21.58
2022-10-06T14:22:04.471Z,21.96
2022-10-06T14:24:34.085Z,21.17
2022-10-06T14:27:02.814Z,21.24
2022-10-06T14:29:29.421Z,21.54
2022-10-06T14:31:55.959Z,21.51
2022-10-06T14:34:22.647Z,21.55
2022-10-06T14:36:55.214Z,21.28
2022-10-06T14:39:22.088Z,21.54
2022-10-06T14:41:48.654Z,21.07
2022-10-06T14:44:16.073Z,21.14
2022-10-06T14:46:47.338Z,21.08
2022-10-06T14:49:13.940Z,20.75
2022-10-06T14:51:42.584Z,20.60
2022-10-06T14:54:11.452Z,20.15
2022-10-06T14:56:40.004Z,20.46
2022-10-06T14:59:09.095Z,20.76
2022-10-06T15:01:39.888Z,20.70
2022-10-06T15:04:13.597Z,20.65
2022-10-06T15:06:59.803Z,20.72
2022-10-06T15:09:27.129Z,20.38
2022-10-06T15:11:55.639Z,19.84
2022-10-06T15:14:23.090Z,20.15
2022-10-06T15:16:50.288Z,19.71
2022-10-06T15:19:17.283Z,19.40
2022-10-06T15:21:47.198Z,19.53
2022-10-06T15:24:18.205Z,19.47
2022-10-06T15:27:04.305Z,19.06
2022-10-06T15:29:31.328Z,18.68
2022-10-06T15:31:58.698Z,18.07
2022-10-06T15:34:31.584Z,18.04
2022-10-06T15:36:59.103Z,17.94
2022-10-06T15:39:28.798Z,17.82
2022-10-06T15:41:55.583Z,17.52
2022-10-06T15:44:22.356Z,17.43
2022-10-06T15:46:54.419Z,17.30
2022-10-06T15:49:26.016Z,17.07
2022-10-06T15:52:02.826Z,16.93
2022-10-06T15:54:33.642Z,16.79
2022-10-06T15:57:01.777Z,16.59
2022-10-06T15:59:31.503Z,16.34
2022-10-06T16:02:04.664Z,16.25
2022-10-06T16:04:46.958Z,16.12
2022-10-06T16:07:16.027Z,15.87
2022-10-06T16:09:50.051Z,15.60
2022-10-06T16:12:22.190Z,15.36
2022-10-06T16:14:48.977Z,15.26
2022-10-06T16:17:15.861Z,15.22
2022-10-06T16:19:42.724Z,15.13
2022-10-06T16:22:12.417Z,14.98
2022-10-06T16:24:39.069Z,14.82
2022-10-06T16:27:06.082Z,14.72
2022-10-06T16:29:32.654Z,14.52
2022-10-06T16:31:59.260Z,14.32
2022-10-06T16:34:25.900Z,14.10
2022-10-06T16:36:52.359Z,14.00
2022-10-06T16:39:21.495Z,13.84
2022-10-06T16:41:49.043Z,13.67
2022-10-06T16:44:16.004Z,13.49
2022-10-06T16:46:42.686Z,13.34
2022-10-06T16:49:09.779Z,13.16
2022-10-06T16:51:39.270Z,12.95
2022-10-06T16:54:08.864Z,12.81
2022-10-06T16:56:40.431Z,12.68
2022-10-06T16:59:13.001Z,12.50
2022-10-06T17:01:39.563Z,12.42
2022-10-06T17:04:10.453Z,12.29
2022-10-06T17:06:51.626Z,12.15
2022-10-06T17:09:19.689Z,12.05
2022-10-06T17:11:51.970Z,11.96
2022-10-06T17:14:19.915Z,11.82
2022-10-06T17:16:48.216Z,11.68
2022-10-06T17:19:16.425Z,11.60
2022-10-06T17:21:46.803Z,11.47
2022-10-06T17:24:17.696Z,11.38
2022-10-06T17:26:47.048Z,11.28
2022-10-06T17:29:18.117Z,11.17
2022-10-06T17:31:45.510Z,11.10
2022-10-06T17:34:20.860Z,10.99
2022-10-06T17:36:49.387Z,10.89
2022-10-06T17:39:18.225Z,10.77
2022-10-06T17:41:46.190Z,10.69
2022-10-06T17:44:22.514Z,10.59
2022-10-06T17:46:51.596Z,10.51
2022-10-06T17:49:22.505Z,10.41
2022-10-06T17:51:50.537Z,10.35
2022-10-06T17:54:20.601Z,10.27
2022-10-06T17:56:49.142Z,10.20
2022-10-06T17:59:24.539Z,10.20
2022-10-06T18:01:53.869Z,10.17
2022-10-06T18:04:20.560Z,10.11
2022-10-06T18:06:47.871Z,10.05
2022-10-06T18:09:15.990Z,10.01
2022-10-06T18:11:44.423Z,10.03
2022-10-06T18:14:16.637Z,10.08
2022-10-06T18:16:56.240Z,10.04
2022-10-06T18:19:26.681Z,9.98
2022-10-06T18:22:12.766Z,9.86
2022-10-06T18:24:40.109Z,9.77
2022-10-06T18:27:07.975Z,9.69
2022-10-06T18:29:37.246Z,9.60
2022-10-06T18:32:51.106Z,9.56
2022-10-06T18:37:40.031Z,9.59
2022-10-06T18:40:09.661Z,9.55
2022-10-06T18:42:36.207Z,9.49
2022-10-06T18:45:22.232Z,9.49
2022-10-06T18:48:07.483Z,9.39
2022-10-06T18:50:35.202Z,9.36
2022-10-06T18:53:03.892Z,9.35
2022-10-06T18:55:30.569Z,9.31
2022-10-06T18:57:57.256Z,9.26
2022-10-06T19:00:25.889Z,9.24
2022-10-06T19:02:54.975Z,9.16
2022-10-06T19:05:21.549Z,9.16
2022-10-06T19:07:48.099Z,9.07
2022-10-06T19:10:15.110Z,9.16
2022-10-06T19:12:41.773Z,9.15
2022-10-06T19:15:09.895Z,9.14
2022-10-06T19:17:38.069Z,9.08
2022-10-06T19:20:05.765Z,9.00
2022-10-06T19:22:33.633Z,8.95
2022-10-06T19:25:00.807Z,8.95
2022-10-06T19:27:28.994Z,8.87
2022-10-06T19:29:56.860Z,8.84
2022-10-06T19:32:28.914Z,8.74
2022-10-06T19:34:58.690Z,8.68
2022-10-06T19:37:30.295Z,8.67
2022-10-06T19:39:56.881Z,8.67
2022-10-06T19:42:42.203Z,8.65
2022-10-06T19:45:11.563Z,8.77
2022-10-06T19:47:38.240Z,8.81
2022-10-06T19:50:11.660Z,8.83
2022-10-06T19:52:40.561Z,9.08
2022-10-06T19:55:07.306Z,9.11
2022-10-06T19:57:34.188Z,9.08
2022-10-06T20:00:01.028Z,9.11
2022-10-06T20:02:28.823Z,9.02
2022-10-06T20:04:56.013Z,8.92
2022-10-06T20:07:25.455Z,8.78
2022-10-06T20:09:52.073Z,8.65
2022-10-06T20:12:23.627Z,8.54
2022-10-06T20:14:51.383Z,8.42
2022-10-06T20:17:17.925Z,8.33
2022-10-06T20:19:46.470Z,8.22
2022-10-06T20:22:13.706Z,8.15
2022-10-06T20:24:40.185Z,8.03
2022-10-06T20:27:06.636Z,8.02
2022-10-06T20:29:34.627Z,7.95
2022-10-06T20:32:01.206Z,7.89
2022-10-06T20:34:32.469Z,7.79
2022-10-06T20:37:04.181Z,7.75
2022-10-06T20:39:51.134Z,7.67
2022-10-06T20:42:19.620Z,7.61
2022-10-06T20:44:46.243Z,7.55
2022-10-06T20:47:13.024Z,7.51
2022-10-06T20:49:40.554Z,7.44
2022-10-06T20:52:09.638Z,7.40
2022-10-06T20:54:36.216Z,7.37
2022-10-06T20:57:05.185Z,7.38
2022-10-06T20:59:35.161Z,7.34
2022-10-06T21:02:02.738Z,7.31
2022-10-06T21:04:30.275Z,7.24
2022-10-06T21:06:57.828Z,7.17
2022-10-06T21:09:24.965Z,7.16
2022-10-06T21:11:52.328Z,7.09
2022-10-06T21:14:18.902Z,7.03
2022-10-06T21:16:47.122Z,6.97
2022-10-06T21:19:18.052Z,6.92
2022-10-06T21:21:51.663Z,6.88
2022-10-06T21:24:18.362Z,6.78
2022-10-06T21:26:45.070Z,6.75
2022-10-06T21:29:14.086Z,6.72
2022-10-06T21:31:41.914Z,6.64
2022-10-06T21:34:08.534Z,6.64
2022-10-06T21:36:35.014Z,6.61
2022-10-06T21:39:01.753Z,6.62
2022-10-06T21:41:31.875Z,6.59
2022-10-06T21:44:00.925Z,6.55
2022-10-06T21:46:42.985Z,6.55
2022-10-06T21:49:11.674Z,6.48
2022-10-06T21:51:43.743Z,6.42
2022-10-06T21:54:10.455Z,6.42
2022-10-06T21:56:37.793Z,6.38
2022-10-06T21:59:04.763Z,6.35
2022-10-06T22:01:33.742Z,6.32
2022-10-06T22:04:00.846Z,6.32
2022-10-06T22:06:28.837Z,6.31
2022-10-06T22:08:56.346Z,6.28
2022-10-06T22:11:25.833Z,6.24
2022-10-06T22:14:01.222Z,6.23
2022-10-06T22:16:30.380Z,6.23
2022-10-06T22:18:57.282Z,6.20
2022-10-06T22:21:35.485Z,6.17
2022-10-06T22:24:04.690Z,6.11
2022-10-06T22:26:34.307Z,6.09
2022-10-06T22:29:00.993Z,6.06
2022-10-06T22:31:28.516Z,6.04
2022-10-06T22:34:00.287Z,6.03
2022-10-06T22:36:28.587Z,6.02
2022-10-06T22:38:56.048Z,5.97
2022-10-06T22:41:23.247Z,5.96
2022-10-06T22:43:53.083Z,5.96
2022-10-06T22:46:19.598Z,5.94
2022-10-06T22:48:46.141Z,5.93
2022-10-06T22:51:13.045Z,5.87
2022-10-06T22:53:39.475Z,5.86
2022-10-06T22:56:06.126Z,5.85
2022-10-06T22:58:32.812Z,5.82
2022-10-06T23:01:15.320Z,5.80
2022-10-06T23:03:42.263Z,5.74
2022-10-06T23:06:12.280Z,5.74
2022-10-06T23:08:39.860Z,5.72
2022-10-06T23:11:11.849Z,5.70
2022-10-06T23:13:38.814Z,5.69
2022-10-06T23:16:08.765Z,5.66
2022-10-06T23:18:37.489Z,5.66
2022-10-06T23:21:09.022Z,5.74
2022-10-06T23:23:35.876Z,5.73
2022-10-06T23:26:04.567Z,5.67
2022-10-06T23:28:31.182Z,5.63
2022-10-06T23:30:57.742Z,5.60
2022-10-06T23:33:24.318Z,5.58
2022-10-06T23:36:02.054Z,5.53
2022-10-06T23:38:28.652Z,5.51
2022-10-06T23:40:55.535Z,5.49
2022-10-06T23:43:23.774Z,5.48
2022-10-06T23:45:50.621Z,5.51
2022-10-06T23:48:17.668Z,5.48
2022-10-06T23:50:58.668Z,5.42
2022-10-06T23:53:25.974Z,5.42
2022-10-06T23:55:52.568Z,5.36
2022-10-06T23:58:20.483Z,5.32
